createdAt,value
2018-06-10T00:01:37.262Z,26.59
2018-06-10T00:06:30.187Z,26.54
2018-06-10T00:11:23.153Z,26.51
2018-06-10T00:16:16.081Z,26.39
2018-06-10T00:21:09.310Z,26.24
2018-06-10T00:26:02.362Z,26.16
2018-06-10T00:30:55.764Z,26.12
2018-06-10T00:35:49.016Z,26.05
2018-06-10T00:40:41.920Z,25.96
2018-06-10T00:45:34.893Z,25.81
2018-06-10T00:50:27.831Z,25.72
2018-06-10T00:55:20.727Z,25.71
2018-06-10T01:00:13.667Z,25.63
2018-06-10T01:05:06.504Z,25.55
2018-06-10T01:09:59.369Z,25.45
2018-06-10T01:14:52.262Z,25.39
2018-06-10T01:19:45.206Z,25.30
2018-06-10T01:24:38.093Z,25.25
2018-06-10T01:29:30.973Z,25.22
2018-06-10T01:34:23.898Z,25.18
2018-06-10T01:39:16.790Z,25.13
2018-06-10T01:44:09.715Z,25.05
2018-06-10T01:49:02.616Z,25.07
2018-06-10T01:53:55.526Z,25.05
2018-06-10T01:58:48.381Z,25.06
2018-06-10T02:03:41.341Z,24.96
2018-06-10T02:08:34.303Z,24.90
2018-06-10T02:13:27.203Z,24.80
2018-06-10T02:18:20.086Z,24.70
2018-06-10T02:23:12.913Z,24.60
2018-06-10T02:28:05.822Z,24.54
2018-06-10T02:32:58.747Z,24.52
2018-06-10T02:37:51.758Z,24.47
2018-06-10T02:42:44.695Z,24.44
2018-06-10T02:47:37.541Z,24.40
2018-06-10T02:52:30.438Z,24.32
2018-06-10T02:57:23.266Z,24.23
2018-06-10T03:02:16.163Z,24.13
2018-06-10T03:07:09.091Z,24.05
2018-06-10T03:12:02.043Z,24.03
2018-06-10T03:16:54.907Z,24.04
2018-06-10T03:21:47.724Z,24.00
2018-06-10T03:26:40.726Z,24.00
2018-06-10T03:31:33.495Z,23.98
2018-06-10T03:36:26.297Z,23.97
2018-06-10T03:41:19.179Z,23.99
2018-06-10T03:46:12.067Z,23.96
2018-06-10T03:51:05.012Z,24.00
2018-06-10T03:55:57.974Z,24.07
2018-06-10T04:00:50.838Z,24.07
2018-06-10T04:05:43.687Z,24.09
2018-06-10T04:10:36.562Z,24.07
2018-06-10T04:15:29.560Z,24.04
2018-06-10T04:20:22.491Z,24.05
2018-06-10T04:25:15.414Z,24.06
2018-06-10T04:30:08.407Z,24.10
2018-06-10T04:35:01.331Z,24.14
2018-06-10T04:39:54.228Z,24.19
2018-06-10T04:44:47.104Z,24.23
2018-06-10T04:49:39.982Z,24.27
2018-06-10T04:54:32.950Z,24.29
2018-06-10T04:59:25.823Z,24.33
2018-06-10T05:04:18.773Z,24.41
2018-06-10T05:09:11.703Z,24.48
2018-06-10T05:14:04.623Z,24.54
2018-06-10T05:18:57.493Z,24.65
2018-06-10T05:23:50.349Z,24.74
2018-06-10T05:28:43.255Z,24.85
2018-06-10T05:33:36.265Z,24.96
2018-06-10T05:38:29.132Z,25.01
2018-06-10T05:43:21.932Z,25.07
2018-06-10T05:48:14.925Z,25.08
2018-06-10T05:53:07.852Z,25.07
2018-06-10T05:58:01.165Z,25.12
2018-06-10T06:02:54.054Z,25.15
2018-06-10T06:07:46.942Z,25.19
2018-06-10T06:12:39.913Z,25.18
2018-06-10T06:17:32.752Z,25.15
2018-06-10T06:22:25.604Z,25.17
2018-06-10T06:27:18.618Z,25.22
2018-06-10T06:32:11.561Z,25.28
2018-06-10T06:37:04.485Z,25.28
2018-06-10T06:41:57.357Z,25.29
2018-06-10T06:46:50.266Z,25.35
2018-06-10T06:51:43.117Z,25.37
2018-06-10T06:56:36.183Z,25.41
2018-06-10T07:01:29.133Z,25.49
2018-06-10T07:06:21.988Z,25.61
2018-06-10T07:11:14.807Z,25.72
2018-06-10T07:16:07.722Z,25.83
2018-06-10T07:21:00.672Z,25.95
2018-06-10T07:25:53.515Z,26.51
2018-06-10T07:30:46.454Z,27.82
2018-06-10T07:35:39.498Z,29.11
2018-06-10T07:40:32.496Z,29.94
2018-06-10T07:45:25.339Z,30.67
2018-06-10T07:50:18.272Z,31.28
2018-06-10T07:55:11.146Z,31.65
2018-06-10T08:00:04.309Z,31.70
2018-06-10T08:04:57.208Z,31.86
2018-06-10T08:09:50.257Z,31.78
2018-06-10T08:14:43.248Z,31.38
2018-06-10T08:19:36.117Z,30.84
2018-06-10T08:24:28.948Z,30.24
2018-06-10T08:29:21.909Z,29.76
2018-06-10T08:34:14.808Z,29.37
2018-06-10T08:39:08.283Z,29.38
2018-06-10T08:44:01.294Z,29.59
2018-06-10T08:48:54.213Z,29.70
2018-06-10T08:53:47.111Z,29.67
2018-06-10T08:58:40.009Z,29.93
2018-06-10T09:03:32.909Z,29.95
2018-06-10T09:08:25.999Z,29.74
2018-06-10T09:13:18.918Z,29.71
2018-06-10T09:18:11.871Z,29.59
2018-06-10T09:23:04.996Z,29.56
2018-06-10T09:27:57.845Z,29.79
2018-06-10T09:32:50.778Z,30.13
2018-06-10T09:37:43.705Z,30.40
2018-06-10T09:42:36.825Z,30.38
2018-06-10T09:47:29.811Z,30.43
2018-06-10T09:52:22.776Z,30.60
2018-06-10T09:57:15.729Z,30.81
2018-06-10T10:02:08.663Z,30.80
2018-06-10T10:07:01.529Z,30.71
2018-06-10T10:11:54.593Z,30.55
2018-06-10T10:16:47.517Z,30.44
2018-06-10T10:21:40.469Z,30.51
2018-06-10T10:26:33.482Z,30.67
2018-06-10T10:31:26.366Z,30.89
2018-06-10T10:36:19.211Z,30.98
2018-06-10T10:41:12.095Z,31.04
2018-06-10T10:46:04.957Z,30.95
2018-06-10T10:50:57.948Z,30.91
2018-06-10T10:55:50.893Z,30.82
2018-06-10T11:00:43.701Z,30.83
2018-06-10T11:05:36.835Z,30.81
2018-06-10T11:10:29.774Z,31.07
2018-06-10T11:15:22.739Z,31.29
2018-06-10T11:20:15.587Z,31.35
2018-06-10T11:25:08.480Z,31.47
2018-06-10T11:30:01.304Z,31.73
2018-06-10T11:34:54.221Z,31.77
2018-06-10T11:39:47.331Z,31.90
2018-06-10T11:44:40.233Z,31.89
2018-06-10T11:49:33.090Z,31.79
2018-06-10T11:54:25.902Z,31.69
2018-06-10T11:59:18.857Z,31.56
2018-06-10T12:04:11.789Z,31.44
2018-06-10T12:09:07.134Z,31.35
2018-06-10T12:14:00.055Z,31.31
2018-06-10T12:18:52.997Z,31.05
2018-06-10T12:23:45.959Z,30.37
2018-06-10T12:28:38.946Z,29.32
2018-06-10T12:33:31.830Z,28.77
2018-06-10T12:38:24.836Z,28.64
2018-06-10T12:43:17.754Z,28.40
2018-06-10T12:48:10.692Z,28.45
2018-06-10T12:53:04.657Z,28.21
2018-06-10T12:57:57.604Z,28.08
2018-06-10T13:02:50.618Z,27.96
2018-06-10T13:07:43.509Z,28.05
2018-06-10T13:12:36.554Z,28.16
2018-06-10T13:17:29.413Z,28.35
2018-06-10T13:22:22.305Z,28.48
2018-06-10T13:27:15.168Z,28.64
2018-06-10T13:32:08.147Z,28.77
2018-06-10T13:37:01.020Z,28.83
2018-06-10T13:41:53.905Z,28.81
2018-06-10T13:46:46.747Z,28.82
2018-06-10T13:51:39.744Z,28.80
2018-06-10T13:56:32.664Z,28.76
2018-06-10T14:01:25.547Z,28.75
2018-06-10T14:06:18.528Z,28.71
2018-06-10T14:11:11.422Z,28.71
2018-06-10T14:16:04.398Z,28.73
2018-06-10T14:20:57.397Z,28.75
2018-06-10T14:25:50.289Z,28.68
2018-06-10T14:30:43.177Z,28.69
2018-06-10T14:35:36.198Z,28.71
2018-06-10T14:40:29.172Z,28.72
2018-06-10T14:45:22.049Z,28.69
2018-06-10T14:50:14.931Z,28.62
2018-06-10T14:55:07.978Z,28.55
2018-06-10T15:00:01.040Z,28.45
2018-06-10T15:04:54.005Z,28.34
2018-06-10T15:09:46.930Z,27.87
2018-06-10T15:14:39.781Z,27.74
2018-06-10T15:19:32.730Z,27.69
2018-06-10T15:24:25.743Z,27.59
2018-06-10T15:29:18.713Z,27.47
2018-06-10T15:34:11.652Z,27.35
2018-06-10T15:39:07.276Z,27.20
2018-06-10T15:44:00.286Z,27.05
2018-06-10T15:48:53.221Z,26.96
2018-06-10T15:53:46.309Z,26.83
2018-06-10T15:58:39.309Z,26.75
2018-06-10T16:03:32.321Z,26.64
2018-06-10T16:08:25.287Z,26.52
2018-06-10T16:13:18.151Z,26.46
2018-06-10T16:18:11.169Z,26.44
2018-06-10T16:23:04.118Z,26.46
2018-06-10T16:27:57.085Z,26.52
2018-06-10T16:32:49.989Z,26.63
2018-06-10T16:37:42.924Z,26.59
2018-06-10T16:42:35.861Z,26.53
2018-06-10T16:47:28.847Z,26.52
2018-06-10T16:52:21.768Z,26.58
2018-06-10T16:57:14.577Z,26.66
2018-06-10T17:02:07.515Z,26.65
2018-06-10T17:07:00.383Z,26.57
2018-06-10T17:11:53.526Z,26.51
2018-06-10T17:16:46.451Z,26.49
2018-06-10T17:21:39.421Z,26.46
2018-06-10T17:26:32.347Z,26.44
2018-06-10T17:31:25.321Z,26.41
2018-06-10T17:36:18.120Z,26.39
2018-06-10T17:41:11.006Z,26.39
2018-06-10T17:46:04.025Z,26.41
2018-06-10T17:50:57.041Z,26.38
2018-06-10T17:55:50.132Z,26.30
2018-06-10T18:00:43.198Z,26.24
2018-06-10T18:05:36.095Z,26.25
2018-06-10T18:10:29.121Z,26.26
2018-06-10T18:15:22.321Z,26.25
2018-06-10T18:20:15.440Z,26.26
2018-06-10T18:25:08.618Z,26.27
2018-06-10T18:30:01.875Z,26.16
2018-06-10T18:34:54.850Z,26.01
2018-06-10T18:39:47.915Z,25.88
2018-06-10T18:44:41.081Z,25.78
2018-06-10T18:49:34.197Z,25.68
2018-06-10T18:54:27.398Z,25.58
2018-06-10T18:59:20.692Z,25.54
2018-06-10T19:04:13.869Z,25.52
2018-06-10T19:09:08.805Z,25.51
2018-06-10T19:14:01.965Z,25.47
2018-06-10T19:18:55.105Z,25.36
2018-06-10T19:23:48.108Z,25.25
2018-06-10T19:28:41.126Z,25.14
2018-06-10T19:33:36.261Z,24.99
2018-06-10T19:38:29.293Z,24.86
2018-06-10T19:43:22.323Z,24.79
2018-06-10T19:48:15.345Z,24.69
2018-06-10T19:53:08.422Z,24.58
2018-06-10T19:58:01.466Z,24.52
2018-06-10T20:02:54.469Z,24.49
2018-06-10T20:07:47.574Z,24.43
2018-06-10T20:12:40.621Z,24.37
2018-06-10T20:17:33.716Z,24.27
2018-06-10T20:22:26.807Z,24.23
2018-06-10T20:27:19.806Z,24.15
2018-06-10T20:32:12.822Z,24.04
2018-06-10T20:37:06.051Z,24.01
2018-06-10T20:41:59.178Z,24.00
2018-06-10T20:46:52.207Z,23.90
2018-06-10T20:51:45.158Z,23.76
2018-06-10T20:56:38.127Z,23.67
2018-06-10T21:01:31.016Z,23.61
2018-06-10T21:06:23.963Z,23.54
2018-06-10T21:11:16.921Z,23.48
2018-06-10T21:16:09.859Z,23.47
2018-06-10T21:21:02.882Z,23.40
2018-06-10T21:25:55.906Z,23.35
2018-06-10T21:30:48.876Z,23.27
2018-06-10T21:35:41.789Z,23.18
2018-06-10T21:40:34.688Z,23.08
2018-06-10T21:45:27.621Z,22.99
2018-06-10T21:50:20.465Z,22.97
2018-06-10T21:55:13.337Z,22.88
2018-06-10T22:00:15.005Z,22.80
2018-06-10T22:05:07.937Z,22.74
2018-06-10T22:10:00.888Z,22.68
2018-06-10T22:14:53.802Z,22.65
2018-06-10T22:19:46.754Z,22.62
2018-06-10T22:24:39.928Z,22.59
2018-06-10T22:29:32.766Z,22.54
2018-06-10T22:34:25.659Z,22.49
2018-06-10T22:39:18.505Z,22.47
2018-06-10T22:44:11.280Z,22.42
2018-06-10T22:49:04.196Z,22.36
2018-06-10T22:54:14.454Z,22.31
2018-06-10T22:59:07.417Z,22.23
2018-06-10T23:04:00.363Z,22.13
2018-06-10T23:08:53.206Z,22.05
2018-06-10T23:13:46.090Z,22.01
2018-06-10T23:18:38.933Z,21.97
2018-06-10T23:23:31.784Z,21.93
2018-06-10T23:28:24.698Z,21.89
2018-06-10T23:33:17.554Z,21.82
2018-06-10T23:38:10.444Z,21.78
2018-06-10T23:43:03.338Z,21.72
2018-06-10T23:47:56.263Z,21.68
2018-06-10T23:52:49.177Z,21.65
2018-06-10T23:57:42.114Z,21.59
